Terminal Aerodrome Forecast
Issued by NWS Jackson, MS

Home | Current Version | Previous Version | Text Only | Print | Product List | Glossary On
Versions: 1 2 3 4 5 6 7 8 9 10 11 12 13 14 15
000
FTUS44 KJAN 271721
TAFJAN
TAF
KJAN 271721Z 2718/2818 35009KT P6SM SKC
     FM272200 32010G17KT P6SM BKN050 BKN090
     FM280000 34009KT P6SM SKC
     FM280200 35004KT P6SM SKC
     FM281500 12004KT P6SM SCT250=

USA.gov is the U.S. government's official web portal to all federal, state and local government web resources and services.